Time;durP1;ratioP1;P1;durP2;ratioP2;P2;SDS_P1;SDS_P2;PMS_P1;PMS_P2;Temp;Humidity;BMP_temperature;BMP_pressure;BME280_temperature;BME280_humidity;BME280_pressure;Samples;Min_cycle;Max_cycle;Signal;HPM_P1;HPM_P2
2022/07/17 00:01:16;;;;;;;3.00;1.98;;;;;;;9.73;100.00;101736.16;5047571;28;20051;-79
2022/07/17 00:03:43;;;;;;;4.00;2.63;;;;;;;9.73;100.00;101733.53;5031840;28;20051;-79
2022/07/17 00:06:10;;;;;;;3.47;2.17;;;;;;;9.66;100.00;101729.13;5024600;28;20049;-77
2022/07/17 00:08:36;;;;;;;4.72;1.88;;;;;;;9.63;100.00;101734.41;5008855;28;20040;-79
2022/07/17 00:11:03;;;;;;;3.72;1.80;;;;;;;9.63;100.00;101737.06;5048996;28;20041;-79
2022/07/17 00:13:30;;;;;;;2.15;1.77;;;;;;;9.56;100.00;101736.16;5026911;28;20049;-79
2022/07/17 00:15:57;;;;;;;3.75;1.60;;;;;;;9.53;100.00;101737.06;5048081;28;20037;-80
2022/07/17 00:18:24;;;;;;;2.75;1.70;;;;;;;9.52;100.00;101742.34;5047529;28;20391;-78
2022/07/17 00:20:50;;;;;;;3.22;1.65;;;;;;;9.50;100.00;101742.34;5029422;28;20051;-80
2022/07/17 00:23:18;;;;;;;3.67;1.73;;;;;;;9.51;100.00;101740.56;5041006;28;20043;-80
2022/07/17 00:25:45;;;;;;;3.10;1.70;;;;;;;9.49;100.00;101742.31;5006755;28;20055;-80
2022/07/17 00:28:12;;;;;;;2.28;1.50;;;;;;;9.49;100.00;101745.81;5039128;28;20049;-79
2022/07/17 00:30:38;;;;;;;2.92;1.50;;;;;;;9.44;100.00;101744.06;5042607;28;20474;-79
2022/07/17 00:33:06;;;;;;;3.85;2.00;;;;;;;9.42;100.00;101744.09;5037697;28;20048;-79
2022/07/17 00:35:33;;;;;;;4.47;1.63;;;;;;;9.48;100.00;101741.44;5041202;28;20038;-80
2022/07/17 00:38:00;;;;;;;5.30;2.05;;;;;;;9.39;100.00;101743.19;5010752;28;20043;-78
2022/07/17 00:40:27;;;;;;;3.42;1.85;;;;;;;9.39;100.00;101740.53;5039748;28;20051;-80
2022/07/17 00:42:53;;;;;;;4.30;2.00;;;;;;;9.36;100.00;101744.06;5045918;28;20041;-80
2022/07/17 00:45:24;;;;;;;3.72;1.90;;;;;;;9.35;100.00;101736.16;5042903;28;20033;-78
2022/07/17 00:48:05;;;;;;;4.95;1.92;;;;;;;9.29;100.00;101737.00;5021171;28;20048;-79
2022/07/17 00:50:34;;;;;;;2.90;1.80;;;;;;;9.31;100.00;101743.16;5028914;28;20045;-79
2022/07/17 00:53:02;;;;;;;4.97;1.80;;;;;;;9.29;100.00;101742.28;5040398;28;20041;-78
2022/07/17 00:55:29;;;;;;;2.97;1.80;;;;;;;9.35;100.00;101738.78;5033833;28;20057;-78
2022/07/17 00:58:21;;;;;;;3.42;1.63;;;;;;;9.22;100.00;101738.75;5030276;28;20044;-79
2022/07/17 01:00:49;;;;;;;4.25;2.33;;;;;;;9.31;100.00;101740.53;5028318;28;20467;-80
2022/07/17 01:03:17;;;;;;;3.65;1.77;;;;;;;9.20;100.00;101744.91;5046038;28;20045;-79
2022/07/17 01:05:44;;;;;;;3.33;2.13;;;;;;;9.18;100.00;101738.75;5051005;28;20579;-81
2022/07/17 01:08:11;;;;;;;2.63;1.70;;;;;;;9.18;100.00;101741.38;5048995;28;20048;-80
2022/07/17 01:10:39;;;;;;;4.50;2.28;;;;;;;9.13;100.00;101744.00;5032055;28;20041;-79
2022/07/17 01:13:06;;;;;;;3.92;1.98;;;;;;;9.13;100.00;101741.38;5045799;28;20033;-81
2022/07/17 01:15:38;;;;;;;4.30;1.70;;;;;;;9.09;100.00;101738.72;5048195;28;20068;-79
2022/07/17 01:18:10;;;;;;;3.63;1.83;;;;;;;9.04;100.00;101730.78;5036887;28;20045;-78
2022/07/17 01:20:39;;;;;;;5.85;2.42;;;;;;;9.01;100.00;101741.34;5043531;28;20124;-79
2022/07/17 01:23:06;;;;;;;4.10;1.77;;;;;;;9.00;100.00;101743.09;5039352;28;20544;-80
2022/07/17 01:25:35;;;;;;;4.10;1.85;;;;;;;8.93;100.00;101737.81;5047183;28;20433;-79
2022/07/17 01:28:03;;;;;;;5.60;2.35;;;;;;;8.90;100.00;101738.66;5048215;28;20045;-79
2022/07/17 01:30:30;;;;;;;2.38;1.90;;;;;;;8.84;100.00;101733.38;5027669;28;20140;-79
2022/07/17 01:32:57;;;;;;;3.05;1.80;;;;;;;8.85;100.00;101735.13;5013442;28;20098;-79
2022/07/17 01:35:23;;;;;;;4.38;1.83;;;;;;;8.81;100.00;101738.59;5023766;28;20044;-79
2022/07/17 01:37:50;;;;;;;5.05;1.90;;;;;;;8.80;100.00;101726.31;5043779;28;20041;-79
2022/07/17 01:40:17;;;;;;;2.93;1.67;;;;;;;8.73;100.00;101728.03;5036928;28;20429;-79
2022/07/17 01:42:47;;;;;;;2.73;1.93;;;;;;;8.70;100.00;101732.44;5028863;28;20041;-78
2022/07/17 01:45:16;;;;;;;4.13;1.83;;;;;;;8.67;100.00;101735.94;5046120;28;20547;-79
2022/07/17 01:47:44;;;;;;;4.20;2.17;;;;;;;8.61;100.00;101730.63;5034001;28;20037;-78
2022/07/17 01:50:11;;;;;;;5.45;2.75;;;;;;;8.57;100.00;101720.94;5064304;28;20041;-79
2022/07/17 01:52:40;;;;;;;3.83;1.90;;;;;;;8.51;100.00;101725.31;5028991;28;20041;-79
2022/07/17 01:55:08;;;;;;;3.30;2.15;;;;;;;8.43;100.00;101720.88;5044528;28;20036;-79
2022/07/17 01:57:35;;;;;;;2.83;2.00;;;;;;;8.36;100.00;101721.72;5036861;28;20657;-79
2022/07/17 02:00:05;;;;;;;5.47;1.93;;;;;;;8.34;100.00;101723.44;5028541;28;20055;-79
2022/07/17 02:02:32;;;;;;;3.75;1.70;;;;;;;8.28;100.00;101718.13;5014504;28;20339;-80
2022/07/17 02:04:58;;;;;;;2.97;1.87;;;;;;;8.24;100.00;101721.63;5059024;28;20044;-78
2022/07/17 02:07:25;;;;;;;3.60;1.87;;;;;;;8.20;100.00;101722.47;5059976;28;20413;-78
2022/07/17 02:09:52;;;;;;;3.33;2.03;;;;;;;8.17;100.00;101725.97;5016071;28;20049;-79
2022/07/17 02:12:20;;;;;;;4.80;2.17;;;;;;;8.10;100.00;101729.44;5010695;28;20136;-79
2022/07/17 02:14:47;;;;;;;5.13;2.50;;;;;;;8.11;100.00;101730.31;5001343;28;20041;-78
2022/07/17 02:17:14;;;;;;;3.67;1.83;;;;;;;8.08;100.00;101735.56;5022998;28;20076;-79
2022/07/17 02:19:41;;;;;;;2.87;1.60;;;;;;;8.02;100.00;101727.63;5023460;28;20049;-79
2022/07/17 02:22:07;;;;;;;2.87;1.80;;;;;;;7.95;100.00;101728.44;5020727;28;20468;-79
2022/07/17 02:24:34;;;;;;;3.60;1.73;;;;;;;7.93;100.00;101722.28;5014896;28;20041;-79
2022/07/17 02:27:01;;;;;;;3.97;2.20;;;;;;;7.92;100.00;101725.78;5010062;28;20041;-79
2022/07/17 02:29:27;;;;;;;3.27;2.07;;;;;;;7.86;100.00;101721.34;5027837;28;20531;-79
2022/07/17 02:31:54;;;;;;;3.57;2.10;;;;;;;7.82;100.00;101725.72;5023410;28;20041;-78
2022/07/17 02:34:21;;;;;;;2.30;1.80;;;;;;;7.82;100.00;101720.47;5039056;28;20044;-79
2022/07/17 02:36:47;;;;;;;3.27;1.73;;;;;;;7.78;100.00;101720.41;5044507;28;20041;-78
2022/07/17 02:39:14;;;;;;;2.83;1.70;;;;;;;7.77;100.00;101730.06;5025623;28;20048;-78
2022/07/17 02:41:41;;;;;;;3.77;1.87;;;;;;;7.71;100.00;101729.13;5048777;28;20041;-79
2022/07/17 02:44:08;;;;;;;3.93;2.07;;;;;;;7.70;100.00;101728.25;5021026;28;20041;-79
2022/07/17 02:46:35;;;;;;;3.70;1.90;;;;;;;7.66;100.00;101738.75;5027590;28;20045;-79
2022/07/17 02:49:03;;;;;;;3.80;2.40;;;;;;;7.63;100.00;101743.09;5020460;28;20095;-79
2022/07/17 02:51:29;;;;;;;2.90;1.97;;;;;;;7.57;100.00;101743.06;5034336;28;20405;-78
2022/07/17 02:53:57;;;;;;;3.67;1.97;;;;;;;7.53;100.00;101733.34;5045551;28;20044;-79
2022/07/17 02:56:24;;;;;;;2.63;2.03;;;;;;;7.56;100.00;101750.91;5029586;28;20043;-78
2022/07/17 02:58:51;;;;;;;4.37;2.13;;;;;;;7.57;100.00;101745.69;5035018;28;20512;-78
2022/07/17 03:01:17;;;;;;;5.07;2.53;;;;;;;7.72;100.00;101744.03;5109617;22;20063;-79
2022/07/17 03:03:45;;;;;;;9.70;2.73;;;;;;;7.68;100.00;101755.41;5013400;28;20044;-79
2022/07/17 03:06:13;;;;;;;5.20;2.20;;;;;;;7.58;100.00;101755.34;5008574;28;20095;-79
2022/07/17 03:08:39;;;;;;;5.13;2.33;;;;;;;7.59;100.00;101756.22;5025710;28;20069;-79
2022/07/17 03:11:06;;;;;;;3.70;2.00;;;;;;;7.59;100.00;101764.97;5015160;28;20037;-80
2022/07/17 03:13:33;;;;;;;3.80;2.10;;;;;;;7.62;100.00;101751.84;5026689;28;20047;-79
2022/07/17 03:16:00;;;;;;;3.63;2.00;;;;;;;7.57;100.00;101761.47;5016839;28;20038;-79
2022/07/17 03:18:27;;;;;;;5.17;2.10;;;;;;;7.57;100.00;101756.19;5009543;28;20052;-80
2022/07/17 03:20:53;;;;;;;3.87;2.00;;;;;;;7.56;100.00;101762.31;5026005;28;20280;-79
2022/07/17 03:23:20;;;;;;;4.23;2.23;;;;;;;7.58;100.00;101757.09;5008979;28;20128;-79
2022/07/17 03:25:47;;;;;;;4.13;2.20;;;;;;;7.58;100.00;101763.22;5029720;28;20153;-80
2022/07/17 03:28:14;;;;;;;3.50;1.87;;;;;;;7.60;100.00;101761.47;5015875;28;20073;-79
2022/07/17 03:30:40;;;;;;;3.60;2.30;;;;;;;7.68;100.00;101764.19;4998239;28;20421;-80
2022/07/17 03:33:07;;;;;;;5.40;2.27;;;;;;;7.67;100.00;101767.69;5019465;28;20037;-83
2022/07/17 03:35:34;;;;;;;3.67;2.07;;;;;;;7.65;100.00;101774.69;5020984;28;20699;-80
2022/07/17 03:38:01;;;;;;;3.43;1.87;;;;;;;7.60;100.00;101772.00;5014943;28;20037;-81
2022/07/17 03:40:28;;;;;;;4.27;2.20;;;;;;;7.65;100.00;101769.44;4995080;28;20121;-80
2022/07/17 03:42:54;;;;;;;4.10;2.33;;;;;;;7.66;100.00;101780.81;4993708;28;20045;-80
2022/07/17 03:45:22;;;;;;;3.77;1.90;;;;;;;7.67;100.00;101775.56;5047998;28;20037;-81
2022/07/17 03:47:49;;;;;;;4.03;2.30;;;;;;;7.71;100.00;101785.25;5034508;28;20625;-79
2022/07/17 03:50:15;;;;;;;5.57;2.63;;;;;;;7.72;100.00;101783.50;4992743;28;20037;-80
2022/07/17 03:52:45;;;;;;;4.90;2.40;;;;;;;7.72;100.00;101787.00;5022288;28;20040;-81
2022/07/17 03:55:13;;;;;;;4.10;2.60;;;;;;;7.77;100.00;101787.94;5030565;28;20069;-79
2022/07/17 03:57:40;;;;;;;4.77;2.20;;;;;;;7.82;100.00;101791.50;5032172;28;20045;-80
2022/07/17 04:00:09;;;;;;;5.63;3.00;;;;;;;7.90;100.00;101791.53;5030407;28;20056;-79
2022/07/17 04:02:36;;;;;;;6.63;2.77;;;;;;;7.95;100.00;101795.09;5032519;28;20045;-79
2022/07/17 04:05:04;;;;;;;2.97;2.50;;;;;;;8.00;100.00;101805.69;4993323;28;20057;-80
2022/07/17 04:07:31;;;;;;;3.23;2.00;;;;;;;8.05;100.00;101809.22;5016510;28;20290;-80
2022/07/17 04:09:58;;;;;;;4.93;2.40;;;;;;;8.20;100.00;101811.97;4998069;28;20057;-79
2022/07/17 04:12:26;;;;;;;5.13;2.53;;;;;;;8.29;100.00;101819.06;5016664;28;20045;-79
2022/07/17 04:14:54;;;;;;;3.93;2.57;;;;;;;8.37;100.00;101825.31;5031730;28;20033;-79
2022/07/17 04:17:21;;;;;;;7.43;2.87;;;;;;;8.40;100.00;101820.91;5033373;28;20121;-79
2022/07/17 04:19:48;;;;;;;3.60;2.30;;;;;;;8.47;100.00;101827.13;5029285;28;20128;-78
2022/07/17 04:22:15;;;;;;;5.37;2.73;;;;;;;8.57;100.00;101826.31;5031423;28;20049;-80
2022/07/17 04:24:42;;;;;;;4.50;2.70;;;;;;;8.67;100.00;101830.78;4995960;28;20050;-79
2022/07/17 04:27:09;;;;;;;3.23;2.37;;;;;;;8.74;100.00;101836.94;5007642;28;20033;-80
2022/07/17 04:29:36;;;;;;;4.70;2.50;;;;;;;8.89;100.00;101831.75;5033437;28;20104;-79
2022/07/17 04:32:03;;;;;;;5.25;2.67;;;;;;;8.99;100.00;101836.19;5017859;28;20034;-80
2022/07/17 04:34:32;;;;;;;5.00;2.90;;;;;;;9.14;100.00;101834.50;5006627;28;20068;-79
2022/07/17 04:36:59;;;;;;;3.53;2.50;;;;;;;9.22;100.00;101836.31;5003620;28;20096;-80
2022/07/17 04:39:26;;;;;;;3.20;2.47;;;;;;;9.36;100.00;101846.03;5006426;28;20041;-81
2022/07/17 04:41:53;;;;;;;5.30;2.85;;;;;;;9.50;100.00;101841.66;5005153;28;20045;-81
2022/07/17 04:44:19;;;;;;;6.32;2.90;;;;;;;9.67;100.00;101847.91;4999885;28;20046;-80
2022/07/17 04:46:46;;;;;;;3.70;2.60;;;;;;;9.73;100.00;101845.25;5012763;28;20630;-81
2022/07/17 04:49:13;;;;;;;4.70;2.33;;;;;;;9.85;100.00;101841.78;5004843;28;20048;-80
2022/07/17 04:51:40;;;;;;;6.72;2.92;;;;;;;10.03;100.00;101844.41;5022911;28;20046;-81
2022/07/17 04:54:07;;;;;;;6.63;2.80;;;;;;;10.11;100.00;101842.66;5029158;28;20045;-80
2022/07/17 04:56:33;;;;;;;5.35;2.40;;;;;;;10.20;100.00;101843.53;5033997;28;20037;-80
2022/07/17 04:59:00;;;;;;;6.18;2.60;;;;;;;10.28;100.00;101841.81;5016347;28;20060;-80
2022/07/17 05:01:27;;;;;;;6.22;2.42;;;;;;;10.45;100.00;101840.03;5014226;28;20053;-81
2022/07/17 05:03:54;;;;;;;7.65;2.97;;;;;;;10.66;100.00;101840.00;4996076;28;20570;-80
2022/07/17 05:06:21;;;;;;;4.22;2.50;;;;;;;10.90;100.00;101840.81;5002865;28;20037;-80
2022/07/17 05:08:47;;;;;;;4.15;2.33;;;;;;;11.05;100.00;101843.44;5034036;28;20045;-80
2022/07/17 05:11:14;;;;;;;4.78;2.30;;;;;;;11.17;100.00;101845.13;5015772;28;20409;-81
2022/07/17 05:13:41;;;;;;;2.42;1.83;;;;;;;11.29;100.00;101850.38;4989616;28;20048;-81
2022/07/17 05:16:07;;;;;;;4.35;2.60;;;;;;;11.62;100.00;101846.69;5027697;28;20041;-80
2022/07/17 05:18:34;;;;;;;4.70;2.30;;;;;;;11.82;100.00;101838.66;5015352;28;20069;-80
2022/07/17 05:21:01;;;;;;;7.93;2.90;;;;;;;11.88;100.00;101841.25;5030466;28;20169;-81
2022/07/17 05:23:28;;;;;;;3.30;2.10;;;;;;;11.98;100.00;101832.34;5023694;28;20474;-81
2022/07/17 05:25:55;;;;;;;4.43;2.33;;;;;;;12.04;100.00;101840.25;5011161;28;20038;-79
2022/07/17 05:28:22;;;;;;;5.28;3.28;;;;;;;12.13;100.00;101831.34;5032821;28;20041;-78
2022/07/17 05:30:48;;;;;;;4.85;2.15;;;;;;;12.17;100.00;101835.72;5001012;28;20053;-78
2022/07/17 05:33:15;;;;;;;4.88;2.15;;;;;;;12.34;99.54;101831.16;5034426;28;20045;-78
2022/07/17 05:35:42;;;;;;;4.97;1.95;;;;;;;12.84;96.85;101831.53;5032767;28;20038;-78
2022/07/17 05:38:10;;;;;;;5.05;2.20;;;;;;;13.39;93.70;101831.78;5010711;28;20751;-78
2022/07/17 05:40:36;;;;;;;5.88;2.38;;;;;;;13.55;89.17;101835.13;5029594;28;20033;-78
2022/07/17 05:43:03;;;;;;;5.72;2.00;;;;;;;14.06;87.55;101830.78;5008977;28;20376;-78
2022/07/17 05:45:30;;;;;;;4.78;2.15;;;;;;;14.65;82.47;101836.00;5022465;28;20536;-77
2022/07/17 05:47:57;;;;;;;4.93;2.30;;;;;;;15.12;81.72;101835.06;5008796;28;20052;-79
2022/07/17 05:50:23;;;;;;;4.03;2.00;;;;;;;16.42;74.36;101839.22;5013797;28;20045;-80
2022/07/17 05:52:50;;;;;;;4.95;2.13;;;;;;;17.62;68.47;101834.91;5003230;28;20139;-79
2022/07/17 05:55:17;;;;;;;4.00;1.73;;;;;;;18.28;64.01;101828.34;5003604;28;20042;-78
2022/07/17 05:57:44;;;;;;;4.18;2.55;;;;;;;18.57;60.87;101846.06;5024746;28;20045;-79
2022/07/17 06:00:10;;;;;;;3.28;2.00;;;;;;;18.12;62.26;101857.41;5018962;28;20051;-79
2022/07/17 06:02:37;;;;;;;3.15;1.80;;;;;;;17.43;65.25;101858.66;5018489;28;20084;-80
2022/07/17 06:05:04;;;;;;;5.32;2.42;;;;;;;17.00;66.79;101853.69;5010884;28;20122;-80
2022/07/17 06:07:31;;;;;;;3.40;1.98;;;;;;;16.66;68.72;101861.72;4993036;28;20133;-80
2022/07/17 06:09:58;;;;;;;5.70;2.20;;;;;;;16.49;70.23;101854.16;5002142;28;20502;-80
2022/07/17 06:12:25;;;;;;;3.90;1.60;;;;;;;16.26;71.71;101855.59;5021587;28;20514;-79
2022/07/17 06:14:52;;;;;;;5.15;2.33;;;;;;;16.10;71.89;101850.69;5001327;28;20041;-79
2022/07/17 06:17:19;;;;;;;6.20;2.25;;;;;;;16.16;72.25;101845.22;5009657;28;20438;-80
2022/07/17 06:19:45;;;;;;;5.18;2.10;;;;;;;16.14;72.75;101845.22;5029058;28;20048;-79
2022/07/17 06:22:12;;;;;;;4.10;2.17;;;;;;;16.33;73.46;101841.19;5028357;28;20049;-79
2022/07/17 06:24:39;;;;;;;3.55;1.55;;;;;;;16.49;71.56;101849.69;5012885;28;20132;-79
2022/07/17 06:27:06;;;;;;;4.43;2.15;;;;;;;16.79;68.70;101849.81;5033052;28;20391;-80
2022/07/17 06:29:32;;;;;;;7.30;1.77;;;;;;;17.02;68.73;101860.72;5014247;28;20465;-80
2022/07/17 06:31:59;;;;;;;3.67;1.55;;;;;;;17.05;66.53;101865.97;5016145;28;20116;-80
2022/07/17 06:34:26;;;;;;;2.67;1.60;;;;;;;16.50;65.02;101863.91;4998472;28;20136;-80
2022/07/17 06:36:53;;;;;;;4.00;1.73;;;;;;;16.55;66.85;101862.84;5028990;28;20030;-80
2022/07/17 06:39:20;;;;;;;3.45;1.70;;;;;;;16.53;65.80;101855.81;5028423;28;20034;-79
2022/07/17 06:41:46;;;;;;;2.88;1.50;;;;;;;16.66;67.09;101856.38;5012640;28;20121;-80
2022/07/17 06:44:13;;;;;;;5.03;2.15;;;;;;;16.59;66.36;101861.00;5034447;28;20060;-78
2022/07/17 06:46:40;;;;;;;4.22;2.58;;;;;;;16.66;68.82;101862.56;5031247;28;20516;-79
2022/07/17 06:49:07;;;;;;;3.72;2.00;;;;;;;16.54;68.46;101857.53;5040153;28;20076;-78
2022/07/17 06:51:34;;;;;;;4.55;1.90;;;;;;;16.47;69.11;101871.97;5010130;28;20554;-79
2022/07/17 06:54:00;;;;;;;5.38;2.20;;;;;;;16.29;69.70;101879.50;5029110;28;20049;-79
2022/07/17 06:56:27;;;;;;;4.60;2.15;;;;;;;16.33;68.68;101886.53;5025397;28;20115;-78
2022/07/17 06:58:54;;;;;;;4.43;2.05;;;;;;;16.30;70.52;101886.59;5009084;28;20045;-78
2022/07/17 07:01:21;;;;;;;3.40;1.65;;;;;;;16.17;67.66;101889.63;5022089;28;20506;-77
2022/07/17 07:03:48;;;;;;;5.00;1.70;;;;;;;16.02;69.46;101889.06;5014218;28;20046;-79
2022/07/17 07:06:15;;;;;;;6.22;2.58;;;;;;;16.11;70.65;101885.28;5013259;28;20037;-78
2022/07/17 07:08:41;;;;;;;3.50;1.60;;;;;;;16.09;69.55;101889.78;5025836;28;20041;-77
2022/07/17 07:11:08;;;;;;;5.20;1.67;;;;;;;16.13;67.82;101894.13;5020113;28;20057;-78
2022/07/17 07:13:35;;;;;;;4.97;1.70;;;;;;;16.18;67.06;101897.56;4993752;28;20053;-77
2022/07/17 07:16:03;;;;;;;3.80;2.03;;;;;;;16.29;68.10;101903.50;4999027;28;20108;-79
2022/07/17 07:18:30;;;;;;;4.93;1.60;;;;;;;16.27;68.23;101905.34;5025844;28;20041;-78
2022/07/17 07:20:57;;;;;;;2.63;1.77;;;;;;;16.22;67.05;101899.22;5015923;28;20089;-78
2022/07/17 07:23:24;;;;;;;3.35;1.23;;;;;;;16.21;66.85;101899.28;5013576;28;20041;-78
2022/07/17 07:25:51;;;;;;;5.18;1.77;;;;;;;16.21;69.15;101907.28;5032764;28;20446;-79
2022/07/17 07:28:18;;;;;;;2.20;1.60;;;;;;;16.15;67.53;101902.13;5017989;28;20069;-78
2022/07/17 07:30:45;;;;;;;3.03;1.63;;;;;;;16.09;69.00;101903.13;5005080;28;20043;-78
2022/07/17 07:33:11;;;;;;;3.22;1.60;;;;;;;16.09;69.05;101902.25;5022297;28;20041;-78
2022/07/17 07:35:39;;;;;;;6.50;2.20;;;;;;;16.00;69.11;101914.00;5022555;28;20149;-78
2022/07/17 07:38:05;;;;;;;4.97;1.85;;;;;;;16.03;68.20;101909.47;4991471;28;20042;-78
2022/07/17 07:40:32;;;;;;;4.50;1.50;;;;;;;15.99;69.66;101906.91;5023629;28;20053;-79
2022/07/17 07:42:59;;;;;;;4.13;2.40;;;;;;;15.96;69.47;101910.50;5014262;28;20076;-78
2022/07/17 07:45:26;;;;;;;4.63;1.83;;;;;;;16.13;71.23;101911.91;5015250;28;20064;-78
2022/07/17 07:47:53;;;;;;;3.55;1.40;;;;;;;15.98;67.56;101905.16;5010935;28;20037;-78
2022/07/17 07:50:23;;;;;;;4.15;1.70;;;;;;;15.84;67.19;101913.47;5022049;28;20041;-78
2022/07/17 07:52:51;;;;;;;2.65;1.60;;;;;;;16.08;68.12;101922.69;5025038;28;20104;-78
2022/07/17 07:55:18;;;;;;;3.58;1.55;;;;;;;16.07;67.08;101909.41;4995515;28;20053;-78
2022/07/17 07:57:48;;;;;;;4.07;1.70;;;;;;;16.00;67.71;101909.53;5007943;28;20096;-78
2022/07/17 08:00:16;;;;;;;5.18;1.85;;;;;;;15.92;68.87;101913.31;5013259;28;20056;-78
2022/07/17 08:02:43;;;;;;;2.97;1.50;;;;;;;15.85;66.43;101912.56;4996255;28;20507;-78
2022/07/17 08:05:10;;;;;;;2.83;1.30;;;;;;;15.76;69.09;101908.31;5024089;28;20045;-78
2022/07/17 08:07:37;;;;;;;2.67;1.55;;;;;;;15.84;70.59;101924.13;5016193;28;20458;-78
2022/07/17 08:10:04;;;;;;;4.10;1.20;;;;;;;15.92;72.18;101907.97;5010348;28;20042;-78
2022/07/17 08:12:33;;;;;;;2.88;1.77;;;;;;;16.13;68.74;101920.78;4988349;28;20053;-78
2022/07/17 08:15:13;;;;;;;3.70;1.83;;;;;;;16.03;67.53;101924.59;5008055;28;20053;-78
2022/07/17 08:17:40;;;;;;;2.92;1.77;;;;;;;16.15;69.06;101913.66;5007723;28;20045;-77
2022/07/17 08:20:08;;;;;;;4.78;1.58;;;;;;;16.19;68.29;101923.31;5008998;28;20103;-77
2022/07/17 08:22:42;;;;;;;3.90;1.73;;;;;;;16.13;66.66;101918.13;4995208;28;20123;-78
2022/07/17 08:25:29;;;;;;;3.42;1.60;;;;;;;16.11;69.23;101919.94;5009375;28;20049;-78
2022/07/17 08:27:56;;;;;;;3.95;1.52;;;;;;;16.20;67.08;101922.41;4996062;28;20565;-78
2022/07/17 08:30:23;;;;;;;7.53;2.65;;;;;;;16.30;69.20;101920.38;5008682;28;20155;-78
2022/07/17 08:32:50;;;;;;;2.75;1.30;;;;;;;16.36;65.99;101922.03;5014802;28;20076;-79
2022/07/17 08:35:17;;;;;;;3.08;1.50;;;;;;;16.40;67.36;101918.41;4995766;28;20073;-79
2022/07/17 08:37:49;;;;;;;7.32;1.60;;;;;;;16.66;67.86;101918.63;5012867;28;20037;-79
2022/07/17 08:40:18;;;;;;;2.72;1.70;;;;;;;16.83;67.77;101919.09;5000619;28;20402;-79
2022/07/17 08:42:45;;;;;;;4.18;1.70;;;;;;;16.98;66.60;101922.25;5021351;28;20091;-79
2022/07/17 08:45:12;;;;;;;3.78;1.48;;;;;;;17.17;64.68;101918.16;5011266;28;20129;-78
2022/07/17 08:47:39;;;;;;;2.75;1.58;;;;;;;17.07;65.29;101928.22;4994072;28;20073;-78
2022/07/17 08:50:08;;;;;;;2.47;1.48;;;;;;;17.21;64.02;101926.97;5025588;28;20383;-77
2022/07/17 08:52:37;;;;;;;4.18;1.55;;;;;;;17.20;63.87;101920.75;4999557;28;20038;-78
2022/07/17 08:55:08;;;;;;;3.30;1.52;;;;;;;17.30;62.54;101924.91;5011796;28;20534;-79
2022/07/17 08:57:38;;;;;;;2.47;1.80;;;;;;;17.27;61.71;101908.97;5016961;28;20057;-78
2022/07/17 09:00:37;;;;;;;4.75;1.85;;;;;;;17.32;62.37;101919.50;5024517;23;20072;-94
2022/07/17 09:03:09;;;;;;;12.93;3.13;;;;;;;17.41;61.91;101914.81;5045870;28;20020;-93
2022/07/17 09:05:40;;;;;;;4.68;2.00;;;;;;;17.55;61.39;101917.06;5055984;28;20036;-94
2022/07/17 09:08:22;;;;;;;6.10;2.10;;;;;;;17.64;62.19;101926.59;5045659;28;20060;-95
2022/07/17 09:10:52;;;;;;;5.43;1.88;;;;;;;17.79;60.56;101906.59;5056104;28;20025;-92
2022/07/17 09:13:28;;;;;;;6.50;1.75;;;;;;;17.86;61.29;101924.19;5036191;28;20033;-94
2022/07/17 09:15:58;;;;;;;4.35;1.60;;;;;;;17.77;60.47;101921.81;5042279;28;20055;-93
2022/07/17 09:18:25;;;;;;;3.65;1.60;;;;;;;18.10;60.24;101918.09;5052108;28;20028;-93
2022/07/17 09:20:54;;;;;;;3.50;1.50;;;;;;;18.69;57.72;101906.38;5040081;28;20097;-92
2022/07/17 09:23:23;;;;;;;2.72;1.35;;;;;;;18.97;55.54;101911.63;5040601;28;20036;-93
2022/07/17 09:25:53;;;;;;;3.97;1.95;;;;;;;19.25;54.88;101909.69;5026525;28;20018;-92
2022/07/17 09:28:21;;;;;;;2.50;1.50;;;;;;;19.12;55.89;101895.88;5034541;28;20056;-92
2022/07/17 09:30:51;;;;;;;3.25;1.60;;;;;;;19.44;54.19;101911.72;5043885;28;20059;-94
2022/07/17 09:33:23;;;;;;;2.88;1.73;;;;;;;19.52;53.64;101901.56;5059346;28;20028;-95
2022/07/17 09:35:54;;;;;;;2.23;1.47;;;;;;;19.29;53.76;101913.16;5055388;28;20212;-93
2022/07/17 09:38:31;;;;;;;13.73;2.65;;;;;;;18.81;54.85;101920.19;5025861;28;20025;-93
2022/07/17 09:41:12;;;;;;;4.43;1.85;;;;;;;18.91;56.62;101914.50;5036538;28;20064;-93
2022/07/17 09:43:54;;;;;;;6.45;1.98;;;;;;;19.22;56.20;101901.78;5049323;28;20055;-93
2022/07/17 09:46:27;;;;;;;4.72;1.90;;;;;;;19.20;54.83;101903.66;5033651;28;20048;-92
2022/07/17 09:48:59;;;;;;;3.33;1.70;;;;;;;19.06;55.28;101912.16;5040130;28;20029;-95
2022/07/17 09:51:34;;;;;;;3.13;1.52;;;;;;;18.87;56.44;101904.84;5024762;28;20056;-95
2022/07/17 09:54:03;;;;;;;3.35;2.00;;;;;;;18.65;54.56;101910.03;5053387;28;20024;-94
2022/07/17 09:56:35;;;;;;;4.38;1.70;;;;;;;18.35;55.85;101906.59;5044817;28;20217;-93
2022/07/17 09:59:06;;;;;;;5.57;2.22;;;;;;;18.43;57.25;101905.41;5042572;28;20025;-95
2022/07/17 10:01:34;;;;;;;4.07;1.73;;;;;;;18.47;56.48;101903.50;5044426;28;20231;-92
2022/07/17 10:04:02;;;;;;;3.85;1.70;;;;;;;18.80;55.76;101914.91;5038878;28;20040;-95
2022/07/17 10:06:30;;;;;;;4.63;1.52;;;;;;;19.34;55.32;101898.66;5054857;28;20029;-93
2022/07/17 10:08:58;;;;;;;2.47;1.60;;;;;;;19.56;52.87;101901.41;5040703;28;20021;-93
2022/07/17 10:11:28;;;;;;;3.50;1.80;;;;;;;19.70;53.35;101895.53;5035000;28;20048;-93
2022/07/17 10:13:57;;;;;;;4.28;1.67;;;;;;;19.67;53.23;101896.53;5053588;28;20067;-94
2022/07/17 10:16:29;;;;;;;3.38;1.73;;;;;;;19.55;52.86;101910.38;5042858;28;20040;-93
2022/07/17 10:18:58;;;;;;;2.70;1.88;;;;;;;19.58;54.79;101907.59;5042163;28;20029;-93
2022/07/17 10:21:27;;;;;;;3.53;1.83;;;;;;;20.18;54.10;101902.56;5034701;28;20025;-93
2022/07/17 10:23:54;;;;;;;2.55;1.67;;;;;;;20.71;50.21;101913.78;5038876;28;20041;-94
2022/07/17 10:26:36;;;;;;;4.05;1.80;;;;;;;20.99;48.69;101910.75;5055827;28;20040;-93
2022/07/17 10:29:03;;;;;;;2.00;1.40;;;;;;;21.14;46.99;101906.53;5075095;28;20021;-94
2022/07/17 10:31:32;;;;;;;4.97;1.70;;;;;;;20.80;46.74;101905.31;5043360;28;20096;-94
2022/07/17 10:34:05;;;;;;;3.60;1.73;;;;;;;21.02;47.58;101917.78;5043517;28;20064;-93
2022/07/17 10:36:37;;;;;;;2.30;1.35;;;;;;;21.46;48.76;101906.91;5040595;28;20036;-95
2022/07/17 10:39:15;;;;;;;3.63;1.30;;;;;;;21.90;47.10;101894.06;5039343;28;20030;-93
2022/07/17 10:41:58;;;;;;;4.38;1.70;;;;;;;21.85;46.67;101904.16;5041836;28;20028;-93
2022/07/17 10:44:29;;;;;;;2.63;1.55;;;;;;;21.75;45.70;101900.16;5057511;28;20073;-94
2022/07/17 10:46:57;;;;;;;3.38;1.50;;;;;;;21.13;46.16;101893.16;5043621;28;20052;-95
2022/07/17 10:49:25;;;;;;;5.43;1.60;;;;;;;21.51;46.13;101905.75;5037781;28;20036;-94
2022/07/17 10:51:53;;;;;;;9.77;2.67;;;;;;;21.92;47.08;101902.91;5039242;28;20021;-94
2022/07/17 10:54:20;;;;;;;2.00;1.20;;;;;;;22.59;47.23;101893.34;5040207;28;20037;-94
2022/07/17 10:56:48;;;;;;;2.47;1.33;;;;;;;22.97;43.17;101907.56;5034305;28;20033;-93
2022/07/17 10:59:16;;;;;;;3.33;1.45;;;;;;;22.87;43.41;101900.91;5038113;28;20029;-94
2022/07/17 11:01:43;;;;;;;2.40;1.40;;;;;;;23.17;43.52;101898.41;5036230;28;20048;-94
2022/07/17 11:04:10;;;;;;;2.95;1.20;;;;;;;23.42;41.20;101889.88;5039861;28;20109;-95
2022/07/17 11:06:38;;;;;;;4.55;2.00;;;;;;;23.40;42.46;101892.66;5047480;28;20060;-93
2022/07/17 11:09:08;;;;;;;5.20;1.65;;;;;;;23.10;42.88;101894.31;5031375;28;20029;-92
2022/07/17 11:11:43;;;;;;;2.97;1.52;;;;;;;22.41;42.96;101903.25;5037363;28;20029;-94
2022/07/17 11:14:22;;;;;;;6.75;2.17;;;;;;;22.52;44.29;101894.59;5039569;28;20031;-94
2022/07/17 11:16:51;;;;;;;3.20;1.58;;;;;;;22.99;44.44;101887.66;5060385;28;20039;-92
2022/07/17 11:19:39;;;;;;;4.38;1.90;;;;;;;22.98;43.99;101895.84;5041262;28;20024;-95
2022/07/17 11:22:10;;;;;;;3.08;1.77;;;;;;;22.91;42.60;101892.59;5040916;28;20029;-94
2022/07/17 11:24:41;;;;;;;3.17;1.70;;;;;;;22.19;43.80;101903.41;5037227;28;20025;-93
2022/07/17 11:27:29;;;;;;;3.55;1.80;;;;;;;21.70;45.78;101899.53;5041728;28;20041;-93
2022/07/17 11:29:58;;;;;;;3.33;1.50;;;;;;;22.30;46.98;101911.84;5037247;28;20051;-93